RUS44

Members
  • Content count

    7
  • Joined

  • Last visited

Community Reputation

0 Нейтральная

About RUS44

  • Rank
    Новичок

Дополнительная информация

  • Место в рейтинге
    67594
  1. Помогите пожалуйста найти план AFL150/151 UUEE-MUHA-UUEE
  2. Подскажите пожлуйста мне, как новичку в X-plane, почему сегодня в Шереметьево при таком(UUEE 011330Z 13004MPS 5000 -DZ BR OVC006 01/00 Q1018 07290145 57290151 NOSIG) метаре после взлета колбасит очень сильно, а на рулении ничего не видно?